createdAt,value
2018-06-04T00:02:04.600Z,7.70
2018-06-04T00:04:32.154Z,9.00
2018-06-04T00:06:59.532Z,8.90
2018-06-04T00:09:26.932Z,12.00
2018-06-04T00:11:54.271Z,11.03
2018-06-04T00:14:21.600Z,13.20
2018-06-04T00:16:48.955Z,10.50
2018-06-04T00:19:16.300Z,13.30
2018-06-04T00:21:43.761Z,14.07
2018-06-04T00:24:11.077Z,15.23
2018-06-04T00:26:38.420Z,14.10
2018-06-04T00:29:05.800Z,14.50
2018-06-04T00:31:33.163Z,12.83
2018-06-04T00:34:00.487Z,11.80
2018-06-04T00:36:27.880Z,8.80
2018-06-04T00:38:55.455Z,7.20
2018-06-04T00:41:22.784Z,7.37
2018-06-04T00:43:50.412Z,11.53
2018-06-04T00:46:17.756Z,10.80
2018-06-04T00:48:45.108Z,12.90
2018-06-04T00:51:12.480Z,8.10
2018-06-04T00:53:39.824Z,10.93
2018-06-04T00:56:12.864Z,10.57
2018-06-04T00:58:40.315Z,11.30
2018-06-04T01:01:07.676Z,10.13
2018-06-04T01:03:35.038Z,9.90
2018-06-04T01:06:02.438Z,10.07
2018-06-04T01:08:29.817Z,10.97
2018-06-04T01:10:57.176Z,13.63
2018-06-04T01:13:24.527Z,13.67
2018-06-04T01:15:51.844Z,11.17
2018-06-04T01:18:19.173Z,9.40
2018-06-04T01:20:46.553Z,12.67
2018-06-04T01:23:14.065Z,8.70
2018-06-04T01:25:41.408Z,5.27
2018-06-04T01:28:08.819Z,6.97
2018-06-04T01:30:36.211Z,8.93
2018-06-04T01:33:03.566Z,8.27
2018-06-04T01:35:30.976Z,6.43
2018-06-04T01:37:58.316Z,7.27
2018-06-04T01:40:25.719Z,9.40
2018-06-04T01:42:53.059Z,10.30
2018-06-04T01:45:20.444Z,11.53
2018-06-04T01:47:47.804Z,11.73
2018-06-04T01:50:15.124Z,13.07
2018-06-04T01:52:42.460Z,13.43
2018-06-04T01:55:09.785Z,15.97
2018-06-04T01:57:37.128Z,16.00
2018-06-04T02:00:04.682Z,11.87
2018-06-04T02:02:32.105Z,7.83
2018-06-04T02:04:59.478Z,8.43
2018-06-04T02:07:26.937Z,7.70
2018-06-04T02:09:54.488Z,7.50
2018-06-04T02:12:21.823Z,7.77
2018-06-04T02:14:49.118Z,10.30
2018-06-04T02:17:16.472Z,14.00
2018-06-04T02:19:43.811Z,11.87
2018-06-04T02:22:11.156Z,10.67
2018-06-04T02:24:38.488Z,10.43
2018-06-04T02:27:05.839Z,9.00
2018-06-04T02:29:33.223Z,4.97
2018-06-04T02:32:00.564Z,3.00
2018-06-04T02:34:27.924Z,24.97
2018-06-04T02:36:55.274Z,15.40
2018-06-04T02:39:22.632Z,17.53
2018-06-04T02:41:49.997Z,16.83
2018-06-04T02:44:17.323Z,18.20
2018-06-04T02:46:44.700Z,13.57
2018-06-04T02:49:12.040Z,5.80
2018-06-04T02:51:39.448Z,3.73
2018-06-04T02:54:06.833Z,6.87
2018-06-04T02:56:34.192Z,10.57
2018-06-04T02:59:01.566Z,10.40
2018-06-04T03:01:28.875Z,12.20
2018-06-04T03:03:56.287Z,13.53
2018-06-04T03:06:23.736Z,10.20
2018-06-04T03:08:51.168Z,8.80
2018-06-04T03:11:18.549Z,6.20
2018-06-04T03:13:45.874Z,7.73
2018-06-04T03:16:13.265Z,8.50
2018-06-04T03:18:40.574Z,8.83
2018-06-04T03:21:07.899Z,9.33
2018-06-04T03:23:35.268Z,9.67
2018-06-04T03:26:02.855Z,9.17
2018-06-04T03:28:30.172Z,9.57
2018-06-04T03:30:57.583Z,12.60
2018-06-04T03:33:24.879Z,7.73
2018-06-04T03:35:52.188Z,5.57
2018-06-04T03:38:19.543Z,7.30
2018-06-04T03:40:46.937Z,7.40
2018-06-04T03:43:14.360Z,9.40
2018-06-04T03:45:41.669Z,10.70
2018-06-04T03:48:09.178Z,8.90
2018-06-04T03:50:36.492Z,19.50
2018-06-04T03:53:03.838Z,19.20
2018-06-04T03:55:31.237Z,22.40
2018-06-04T03:57:58.606Z,20.37
2018-06-04T04:00:27.776Z,9.63
2018-06-04T04:02:55.156Z,14.90
2018-06-04T04:05:22.455Z,7.97
2018-06-04T04:07:50.048Z,7.63
2018-06-04T04:10:17.403Z,5.50
2018-06-04T04:12:44.748Z,5.80
2018-06-04T04:15:12.104Z,5.60
2018-06-04T04:17:39.448Z,7.03
2018-06-04T04:20:06.924Z,19.30
2018-06-04T04:22:34.296Z,11.47
2018-06-04T04:25:01.661Z,11.77
2018-06-04T04:27:29.102Z,23.30
2018-06-04T04:29:57.340Z,26.60
2018-06-04T04:32:24.729Z,26.00
2018-06-04T04:34:52.145Z,15.73
2018-06-04T04:37:19.496Z,17.73
2018-06-04T04:39:46.879Z,25.67
2018-06-04T04:42:14.337Z,27.97
2018-06-04T04:44:41.672Z,23.90
2018-06-04T04:47:09.027Z,25.97
2018-06-04T04:49:36.397Z,26.90
2018-06-04T04:52:03.753Z,29.70
2018-06-04T04:54:31.148Z,27.90
2018-06-04T04:56:58.986Z,25.27
2018-06-04T04:59:26.487Z,24.40
2018-06-04T05:01:53.864Z,25.73
2018-06-04T05:04:21.303Z,24.13
2018-06-04T05:06:48.648Z,25.47
2018-06-04T05:09:16.027Z,26.07
2018-06-04T05:11:43.392Z,24.43
2018-06-04T05:14:10.765Z,25.90
2018-06-04T05:16:38.188Z,25.47
2018-06-04T05:19:05.651Z,27.50
2018-06-04T05:21:33.137Z,26.20
2018-06-04T05:24:00.459Z,26.27
2018-06-04T05:26:27.906Z,25.00
2018-06-04T05:28:55.289Z,26.53
2018-06-04T05:31:22.643Z,25.20
2018-06-04T05:33:49.982Z,25.00
2018-06-04T05:36:17.323Z,26.07
2018-06-04T05:38:44.807Z,27.47
2018-06-04T05:41:12.281Z,25.13
2018-06-04T05:43:39.641Z,26.77
2018-06-04T05:46:06.939Z,24.17
2018-06-04T05:48:34.270Z,25.00
2018-06-04T05:51:01.673Z,23.87
2018-06-04T05:53:29.038Z,23.83
2018-06-04T05:55:56.382Z,25.27
2018-06-04T05:58:23.675Z,48.00
2018-06-04T06:00:51.015Z,25.13
2018-06-04T06:03:18.328Z,25.40
2018-06-04T06:05:45.699Z,23.77
2018-06-04T06:08:13.098Z,25.40
2018-06-04T06:10:40.510Z,23.73
2018-06-04T06:13:07.869Z,23.10
2018-06-04T06:15:35.316Z,24.30
2018-06-04T06:18:02.656Z,23.07
2018-06-04T06:20:30.059Z,22.40
2018-06-04T06:22:57.388Z,23.00
2018-06-04T06:25:24.768Z,23.47
2018-06-04T06:27:52.071Z,23.13
2018-06-04T06:30:19.408Z,23.13
2018-06-04T06:32:46.728Z,22.47
2018-06-04T06:35:14.063Z,22.73
2018-06-04T06:37:41.450Z,23.27
2018-06-04T06:40:08.740Z,22.23
2018-06-04T06:42:36.121Z,21.73
2018-06-04T06:45:03.468Z,20.50
2018-06-04T06:47:30.805Z,20.10
2018-06-04T06:49:58.228Z,20.10
2018-06-04T06:52:25.522Z,19.27
2018-06-04T06:54:52.880Z,18.70
2018-06-04T06:57:20.223Z,17.03
2018-06-04T06:59:47.588Z,16.20
2018-06-04T07:02:15.122Z,18.43
2018-06-04T07:04:42.509Z,15.67
2018-06-04T07:07:09.971Z,16.60
2018-06-04T07:09:37.316Z,17.93
2018-06-04T07:12:04.796Z,17.20
2018-06-04T07:14:32.498Z,16.33
2018-06-04T07:16:59.767Z,17.03
2018-06-04T07:19:27.239Z,16.60
2018-06-04T07:21:54.559Z,17.60
2018-06-04T07:24:21.951Z,17.73
2018-06-04T07:26:49.382Z,18.70
2018-06-04T07:29:16.647Z,18.97
2018-06-04T07:31:44.027Z,17.97
2018-06-04T07:34:11.468Z,16.07
2018-06-04T07:36:38.919Z,18.20
2018-06-04T07:39:07.244Z,18.87
2018-06-04T07:41:34.638Z,18.73
2018-06-04T07:44:02.089Z,19.10
2018-06-04T07:46:29.442Z,20.43
2018-06-04T07:48:56.809Z,19.03
2018-06-04T07:51:24.184Z,19.60
2018-06-04T07:53:51.539Z,18.47
2018-06-04T07:56:18.915Z,17.50
2018-06-04T07:58:46.372Z,18.33
2018-06-04T08:01:13.744Z,18.93
2018-06-04T08:03:41.067Z,18.23
2018-06-04T08:06:08.509Z,15.33
2018-06-04T08:08:35.980Z,19.43
2018-06-04T08:11:03.407Z,17.00
2018-06-04T08:13:30.817Z,15.80
2018-06-04T08:15:58.168Z,16.70
2018-06-04T08:18:25.514Z,16.43
2018-06-04T08:20:52.871Z,14.67
2018-06-04T08:23:20.216Z,13.80
2018-06-04T08:25:47.532Z,14.67
2018-06-04T08:28:14.923Z,12.17
2018-06-04T08:30:42.368Z,13.47
2018-06-04T08:33:09.709Z,13.57
2018-06-04T08:35:37.156Z,13.57
2018-06-04T08:38:04.512Z,12.07
2018-06-04T08:40:31.904Z,11.70
2018-06-04T08:42:59.244Z,10.00
2018-06-04T08:45:26.592Z,9.93
2018-06-04T08:47:53.964Z,11.93
2018-06-04T08:50:21.276Z,10.07
2018-06-04T08:52:48.671Z,14.57
2018-06-04T08:55:15.980Z,13.00
2018-06-04T08:57:43.360Z,13.53
2018-06-04T09:00:10.825Z,11.63
2018-06-04T09:02:38.231Z,10.70
2018-06-04T09:05:05.553Z,12.70
2018-06-04T09:07:32.883Z,11.50
2018-06-04T09:10:00.269Z,12.73
2018-06-04T09:12:27.585Z,11.97
2018-06-04T09:14:55.002Z,13.70
2018-06-04T09:17:22.320Z,12.70
2018-06-04T09:19:49.673Z,13.53
2018-06-04T09:22:17.190Z,14.97
2018-06-04T09:24:44.588Z,15.90
2018-06-04T09:27:12.004Z,13.90
2018-06-04T09:29:39.356Z,15.07
2018-06-04T09:32:06.687Z,12.43
2018-06-04T09:34:34.007Z,12.87
2018-06-04T09:37:01.354Z,12.67
2018-06-04T09:39:28.676Z,11.63
2018-06-04T09:41:56.043Z,12.23
2018-06-04T09:44:23.403Z,11.90
2018-06-04T09:46:50.746Z,11.50
2018-06-04T09:49:18.095Z,10.63
2018-06-04T09:51:45.484Z,12.13
2018-06-04T09:54:12.807Z,9.97
2018-06-04T09:56:40.191Z,10.83
2018-06-04T09:59:07.534Z,10.10
2018-06-04T10:01:34.872Z,13.00
2018-06-04T10:04:02.244Z,12.10
2018-06-04T10:06:29.626Z,10.90
2018-06-04T10:08:56.987Z,11.77
2018-06-04T10:11:24.312Z,11.33
2018-06-04T10:13:51.640Z,10.53
2018-06-04T10:16:18.980Z,8.90
2018-06-04T10:18:46.336Z,10.60
2018-06-04T10:21:13.656Z,7.83
2018-06-04T10:23:40.956Z,8.80
2018-06-04T10:26:08.444Z,7.20
2018-06-04T10:28:35.786Z,7.03
2018-06-04T10:31:03.302Z,7.70
2018-06-04T10:33:30.630Z,7.70
2018-06-04T10:35:57.951Z,8.43
2018-06-04T10:38:26.132Z,7.83
2018-06-04T10:40:53.551Z,7.40
2018-06-04T10:43:21.220Z,11.43
2018-06-04T10:45:48.697Z,10.10
2018-06-04T10:48:16.121Z,12.73
2018-06-04T10:50:43.516Z,12.83
2018-06-04T10:53:10.841Z,18.77
2018-06-04T10:55:38.184Z,21.83
2018-06-04T10:58:05.989Z,19.33
2018-06-04T11:00:33.356Z,10.03
2018-06-04T11:03:00.711Z,17.03
2018-06-04T11:05:28.053Z,13.53
2018-06-04T11:07:55.397Z,11.10
2018-06-04T11:10:22.720Z,9.70
2018-06-04T11:12:50.057Z,12.33
2018-06-04T11:15:17.437Z,13.20
2018-06-04T11:17:44.816Z,10.90
2018-06-04T11:20:12.167Z,12.30
2018-06-04T11:22:39.568Z,11.77
2018-06-04T11:25:06.909Z,12.47
2018-06-04T11:27:34.364Z,10.70
2018-06-04T11:30:01.875Z,13.93
2018-06-04T11:32:29.266Z,18.43
2018-06-04T11:34:56.608Z,18.37
2018-06-04T11:37:24.067Z,16.67
2018-06-04T11:39:51.476Z,15.40
2018-06-04T11:42:18.843Z,13.83
2018-06-04T11:44:46.216Z,15.40
2018-06-04T11:47:13.547Z,14.07
2018-06-04T11:49:40.992Z,17.03
2018-06-04T11:52:08.368Z,15.30
2018-06-04T11:54:35.922Z,16.17
2018-06-04T11:57:03.328Z,13.77
2018-06-04T11:59:30.691Z,13.90
2018-06-04T12:01:58.034Z,16.53
2018-06-04T12:04:25.355Z,16.00
2018-06-04T12:06:52.736Z,18.50
2018-06-04T12:09:20.176Z,20.20
2018-06-04T12:11:47.597Z,19.03
2018-06-04T12:14:14.931Z,19.60
2018-06-04T12:16:42.311Z,20.03
2018-06-04T12:19:09.704Z,17.20
2018-06-04T12:21:37.079Z,16.30
2018-06-04T12:24:04.465Z,18.77
2018-06-04T12:26:31.855Z,17.10
2018-06-04T12:28:59.215Z,17.10
2018-06-04T12:31:26.665Z,16.63
2018-06-04T12:33:54.043Z,17.00
2018-06-04T12:36:21.423Z,15.13
2018-06-04T12:38:48.828Z,16.30
2018-06-04T12:41:16.301Z,15.47
2018-06-04T12:43:43.658Z,16.47
2018-06-04T12:46:10.988Z,17.20
2018-06-04T12:48:38.389Z,18.17
2018-06-04T12:51:05.781Z,17.13
2018-06-04T12:53:33.287Z,17.70
2018-06-04T12:56:00.629Z,19.20
2018-06-04T12:58:28.051Z,18.37
2018-06-04T13:00:55.400Z,16.90
2018-06-04T13:03:22.743Z,14.97
2018-06-04T13:05:50.148Z,16.77
2018-06-04T13:08:17.481Z,17.70
2018-06-04T13:10:44.929Z,16.00
2018-06-04T13:13:12.308Z,17.33
2018-06-04T13:15:39.676Z,18.47
2018-06-04T13:18:07.031Z,20.87
2018-06-04T13:20:34.367Z,18.33
2018-06-04T13:23:01.706Z,17.07
2018-06-04T13:25:29.074Z,17.00
2018-06-04T13:27:56.395Z,17.67
2018-06-04T13:30:23.790Z,17.50
2018-06-04T13:32:51.249Z,15.27
2018-06-04T13:35:18.676Z,24.30
2018-06-04T13:37:46.168Z,18.07
2018-06-04T13:40:13.512Z,24.37
2018-06-04T13:42:40.979Z,19.63
2018-06-04T13:45:08.362Z,20.60
2018-06-04T13:47:35.679Z,21.80
2018-06-04T13:50:03.150Z,19.87
2018-06-04T13:52:30.508Z,21.97
2018-06-04T13:54:57.847Z,20.53
2018-06-04T13:57:25.207Z,17.73
2018-06-04T13:59:52.515Z,22.63
2018-06-04T14:02:19.893Z,16.93
2018-06-04T14:04:47.218Z,19.60
2018-06-04T14:07:14.627Z,17.93
2018-06-04T14:09:42.106Z,19.37
2018-06-04T14:12:09.548Z,16.60
2018-06-04T14:14:36.897Z,17.23
2018-06-04T14:17:04.373Z,17.97
2018-06-04T14:19:31.890Z,18.20
2018-06-04T14:21:59.242Z,16.47
2018-06-04T14:24:26.599Z,18.07
2018-06-04T14:26:53.979Z,17.80
2018-06-04T14:29:21.373Z,19.53
2018-06-04T14:31:48.760Z,19.50
2018-06-04T14:34:16.336Z,16.93
2018-06-04T14:36:43.667Z,14.47
2018-06-04T14:39:11.070Z,16.97
2018-06-04T14:41:38.383Z,17.33
2018-06-04T14:44:05.735Z,14.27
2018-06-04T14:46:33.240Z,15.70
2018-06-04T14:49:00.579Z,16.03
2018-06-04T14:51:28.088Z,19.33
2018-06-04T14:53:55.471Z,13.23
2018-06-04T14:56:22.883Z,14.60
2018-06-04T14:58:50.397Z,17.80
2018-06-04T15:01:17.819Z,18.17
2018-06-04T15:03:45.313Z,15.27
2018-06-04T15:06:12.688Z,16.13
2018-06-04T15:08:40.270Z,16.27
2018-06-04T15:11:07.822Z,17.20
2018-06-04T15:13:35.243Z,15.07
2018-06-04T15:16:02.600Z,13.43
2018-06-04T15:18:29.980Z,13.77
2018-06-04T15:20:57.395Z,16.60
2018-06-04T15:23:24.740Z,16.53
2018-06-04T15:25:52.188Z,14.47
2018-06-04T15:28:19.639Z,16.17
2018-06-04T15:30:47.051Z,14.90
2018-06-04T15:33:14.610Z,16.17
2018-06-04T15:35:42.028Z,17.07
2018-06-04T15:38:09.359Z,17.53
2018-06-04T15:40:36.920Z,17.20
2018-06-04T15:43:04.630Z,16.10
2018-06-04T15:45:32.079Z,17.70
2018-06-04T15:47:59.566Z,18.27
2018-06-04T15:50:26.898Z,14.83
2018-06-04T15:52:54.266Z,16.80
2018-06-04T15:55:21.682Z,15.33
2018-06-04T15:57:49.071Z,14.47
2018-06-04T16:00:16.597Z,14.80
2018-06-04T16:02:44.031Z,13.90
2018-06-04T16:05:11.349Z,14.47
2018-06-04T16:07:39.028Z,12.83
2018-06-04T16:10:06.431Z,16.37
2018-06-04T16:12:33.796Z,14.50
2018-06-04T16:15:01.136Z,15.30
2018-06-04T16:17:28.492Z,14.40
2018-06-04T16:19:55.920Z,14.27
2018-06-04T16:22:23.340Z,14.30
2018-06-04T16:24:50.859Z,15.10
2018-06-04T16:27:18.166Z,17.03
2018-06-04T16:29:45.624Z,13.23
2018-06-04T16:32:13.024Z,14.10
2018-06-04T16:34:40.462Z,13.00
2018-06-04T16:37:07.873Z,14.80
2018-06-04T16:39:35.314Z,13.83
2018-06-04T16:42:02.628Z,13.90
2018-06-04T16:44:30.107Z,13.33
2018-06-04T16:46:57.443Z,14.60
2018-06-04T16:49:24.846Z,14.40
2018-06-04T16:51:52.337Z,16.87
2018-06-04T16:54:19.696Z,13.13
2018-06-04T16:56:47.022Z,14.07
2018-06-04T16:59:14.504Z,14.33
2018-06-04T17:01:41.856Z,14.53
2018-06-04T17:04:09.241Z,15.00
2018-06-04T17:06:36.612Z,14.10
2018-06-04T17:09:05.588Z,14.07
2018-06-04T17:11:32.951Z,12.43
2018-06-04T17:14:00.312Z,11.73
2018-06-04T17:16:27.657Z,16.03
2018-06-04T17:18:55.008Z,12.13
2018-06-04T17:21:22.363Z,13.60
2018-06-04T17:23:49.772Z,12.70
2018-06-04T17:26:17.289Z,12.93
2018-06-04T17:28:44.642Z,12.10
2018-06-04T17:33:44.960Z,13.80
2018-06-04T17:36:12.296Z,12.37
2018-06-04T17:38:39.858Z,10.30
2018-06-04T17:41:07.292Z,10.90
2018-06-04T17:43:34.711Z,11.87
2018-06-04T17:46:02.130Z,13.07
2018-06-04T17:48:29.484Z,14.00
2018-06-04T17:50:56.899Z,12.10
2018-06-04T17:53:24.315Z,12.47
2018-06-04T17:55:51.719Z,11.10
2018-06-04T17:58:19.106Z,12.13
2018-06-04T18:00:46.637Z,11.70
2018-06-04T18:03:14.034Z,13.97
2018-06-04T18:05:41.400Z,11.53
2018-06-04T18:08:08.765Z,13.50
2018-06-04T18:10:36.317Z,12.90
2018-06-04T18:13:03.865Z,12.93
2018-06-04T18:15:31.218Z,11.67
2018-06-04T18:17:58.576Z,12.40
2018-06-04T18:20:25.936Z,12.53
2018-06-04T18:22:53.272Z,11.60
2018-06-04T18:25:20.658Z,13.00
2018-06-04T18:27:48.099Z,12.20
2018-06-04T18:30:15.469Z,10.80
2018-06-04T18:32:42.940Z,11.00
2018-06-04T18:35:10.339Z,10.43
2018-06-04T18:37:37.701Z,11.90
2018-06-04T18:40:05.045Z,13.90
2018-06-04T18:42:32.433Z,11.90
2018-06-04T18:44:59.805Z,12.30
2018-06-04T18:47:27.168Z,13.20
2018-06-04T18:49:54.580Z,13.13
2018-06-04T18:52:21.912Z,13.13
2018-06-04T18:54:49.248Z,13.03
2018-06-04T18:57:16.647Z,13.00
2018-06-04T18:59:44.125Z,13.10
2018-06-04T19:02:11.597Z,11.73
2018-06-04T19:04:38.988Z,12.13
2018-06-04T19:07:06.376Z,11.87
2018-06-04T19:09:33.836Z,12.10
2018-06-04T19:12:01.164Z,12.50
2018-06-04T19:14:28.526Z,12.57
2018-06-04T19:16:55.896Z,12.50
2018-06-04T19:19:23.228Z,13.07
2018-06-04T19:21:50.600Z,11.33
2018-06-04T19:24:17.959Z,12.77
2018-06-04T19:26:45.389Z,11.43
2018-06-04T19:29:12.852Z,12.00
2018-06-04T19:31:40.215Z,13.40
2018-06-04T19:34:07.625Z,13.87
2018-06-04T19:36:35.074Z,10.83
2018-06-04T19:39:02.660Z,11.93
2018-06-04T19:41:30.071Z,13.57
2018-06-04T19:43:57.459Z,13.10
2018-06-04T19:46:24.841Z,12.03
2018-06-04T19:48:52.186Z,12.60
2018-06-04T19:51:19.517Z,13.60
2018-06-04T19:53:46.865Z,12.10
2018-06-04T19:56:14.250Z,13.40
2018-06-04T19:58:41.573Z,12.90
2018-06-04T20:01:08.946Z,13.93
2018-06-04T20:03:36.302Z,14.30
2018-06-04T20:06:03.677Z,15.00
2018-06-04T20:08:31.012Z,14.43
2018-06-04T20:10:58.521Z,15.70
2018-06-04T20:13:25.836Z,14.90
2018-06-04T20:15:53.207Z,14.90
2018-06-04T20:18:20.548Z,16.63
2018-06-04T20:20:47.924Z,16.17
2018-06-04T20:23:15.252Z,15.60
2018-06-04T20:25:42.689Z,16.03
2018-06-04T20:28:10.060Z,14.97
2018-06-04T20:30:37.413Z,15.93
2018-06-04T20:33:04.932Z,14.50
2018-06-04T20:35:32.252Z,14.03
2018-06-04T20:37:59.638Z,15.50
2018-06-04T20:40:26.980Z,12.90
2018-06-04T20:42:54.300Z,15.90
2018-06-04T20:45:21.610Z,14.73
2018-06-04T20:47:48.978Z,15.33
2018-06-04T20:50:16.331Z,15.30
2018-06-04T20:52:43.693Z,14.10
2018-06-04T20:55:11.051Z,15.20
2018-06-04T20:57:38.536Z,15.33
2018-06-04T21:00:05.950Z,15.93
2018-06-04T21:02:33.302Z,14.87
2018-06-04T21:05:00.677Z,14.33
2018-06-04T21:07:28.035Z,15.67
2018-06-04T21:09:55.470Z,15.93
2018-06-04T21:12:22.814Z,15.33
2018-06-04T21:14:50.178Z,14.50
2018-06-04T21:17:17.552Z,16.13
2018-06-04T21:19:44.936Z,14.37
2018-06-04T21:22:12.294Z,14.50
2018-06-04T21:24:39.612Z,16.23
2018-06-04T21:27:06.955Z,15.23
2018-06-04T21:29:34.305Z,16.93
2018-06-04T21:32:01.660Z,16.90
2018-06-04T21:34:29.033Z,15.73
2018-06-04T21:36:56.412Z,15.60
2018-06-04T21:39:23.759Z,16.70
2018-06-04T21:41:51.123Z,16.63
2018-06-04T21:44:18.619Z,17.10
2018-06-04T21:46:46.007Z,16.30
2018-06-04T21:49:19.839Z,16.97
2018-06-04T21:51:47.380Z,16.83
2018-06-04T21:54:14.835Z,15.87
2018-06-04T21:56:42.200Z,18.40
2018-06-04T21:59:09.617Z,18.97
2018-06-04T22:01:37.145Z,18.90
2018-06-04T22:04:04.492Z,21.03
2018-06-04T22:06:31.881Z,21.93
2018-06-04T22:08:59.231Z,21.40
2018-06-04T22:11:26.622Z,21.80
2018-06-04T22:13:53.984Z,18.33
2018-06-04T22:16:21.514Z,21.93
2018-06-04T22:18:48.834Z,18.33
2018-06-04T22:21:16.195Z,17.50
2018-06-04T22:23:43.581Z,16.40
2018-06-04T22:26:10.927Z,16.43
2018-06-04T22:28:38.324Z,15.73
2018-06-04T22:31:05.926Z,16.53
2018-06-04T22:33:33.298Z,16.17
2018-06-04T22:36:00.652Z,16.63
2018-06-04T22:38:28.123Z,18.43
2018-06-04T22:40:55.683Z,16.67
2018-06-04T22:43:23.051Z,17.50
2018-06-04T22:45:50.450Z,19.23
2018-06-04T22:48:17.843Z,19.47
2018-06-04T22:50:45.161Z,18.63
2018-06-04T22:53:12.625Z,21.20
2018-06-04T22:55:40.024Z,20.07
2018-06-04T22:58:07.336Z,18.97
2018-06-04T23:00:35.224Z,20.90
2018-06-04T23:03:02.784Z,21.07
2018-06-04T23:05:30.236Z,20.90
2018-06-04T23:07:57.555Z,22.50
2018-06-04T23:10:24.904Z,23.60
2018-06-04T23:12:52.266Z,24.00
2018-06-04T23:15:19.674Z,21.70
2018-06-04T23:17:47.302Z,23.17
2018-06-04T23:20:14.754Z,23.83
2018-06-04T23:22:42.124Z,22.43
2018-06-04T23:25:09.688Z,22.33
2018-06-04T23:27:37.014Z,25.10
2018-06-04T23:30:04.608Z,24.67
2018-06-04T23:32:31.947Z,23.60
2018-06-04T23:34:59.520Z,26.77
2018-06-04T23:37:26.879Z,25.97
2018-06-04T23:39:54.299Z,27.30
2018-06-04T23:42:21.628Z,27.77
2018-06-04T23:44:48.951Z,27.00
2018-06-04T23:47:16.362Z,25.87
2018-06-04T23:49:43.867Z,28.07
2018-06-04T23:52:11.275Z,29.27
2018-06-04T23:54:38.631Z,28.73
2018-06-04T23:57:05.990Z,31.43
2018-06-04T23:59:33.450Z,28.37
